Terminal Aerodrome Forecast
Issued by NWS Los Angeles, CA

Home | Current Version | Previous Version | Text Only | Print | Product List | Glossary On
Versions: 1 2 3 4 5 6 7 8 9 10 11 12 13 14 15 16 17 18 19 20 21 22 23 24 25 26 27 28
000
FTUS46 KLOX 260900 AAB
TAFSMX
TAF AMD
KSMX 260900Z 2609/2706 VRB03KT 4SM BR OVC005
     FM261700 VRB03KT P6SM SCT008
     FM261900 30010KT P6SM SCT250
     FM270300 VRB03KT 5SM BR OVC005=

USA.gov is the U.S. government's official web portal to all federal, state and local government web resources and services.